sensor_id;sensor_type;location;lat;lon;timestamp;P1;durP1;ratioP1;P2;durP2;ratioP2
58250;SDS011;51449;51.676;5.812;2023-11-21T00:00:53;11.63;;;6.47;;
58250;SDS011;51449;51.676;5.812;2023-11-21T00:03:15;13.33;;;6.33;;
58250;SDS011;51449;51.676;5.812;2023-11-21T00:05:37;13.90;;;6.83;;
58250;SDS011;51449;51.676;5.812;2023-11-21T00:07:59;11.10;;;6.17;;
58250;SDS011;51449;51.676;5.812;2023-11-21T00:10:20;13.20;;;6.47;;
58250;SDS011;51449;51.676;5.812;2023-11-21T00:12:42;14.63;;;6.93;;
58250;SDS011;51449;51.676;5.812;2023-11-21T00:15:04;12.13;;;6.27;;
58250;SDS011;51449;51.676;5.812;2023-11-21T00:17:27;13.20;;;6.77;;
58250;SDS011;51449;51.676;5.812;2023-11-21T00:19:49;13.63;;;6.90;;
58250;SDS011;51449;51.676;5.812;2023-11-21T00:22:13;13.07;;;6.72;;
58250;SDS011;51449;51.676;5.812;2023-11-21T00:24:35;13.97;;;6.97;;
58250;SDS011;51449;51.676;5.812;2023-11-21T00:26:57;9.20;;;6.37;;
58250;SDS011;51449;51.676;5.812;2023-11-21T00:29:19;15.77;;;6.33;;
58250;SDS011;51449;51.676;5.812;2023-11-21T00:31:40;14.70;;;7.10;;
58250;SDS011;51449;51.676;5.812;2023-11-21T00:34:03;13.17;;;6.33;;
58250;SDS011;51449;51.676;5.812;2023-11-21T00:36:28;12.43;;;6.43;;
58250;SDS011;51449;51.676;5.812;2023-11-21T00:38:50;9.53;;;5.80;;
58250;SDS011;51449;51.676;5.812;2023-11-21T00:41:11;14.47;;;6.80;;
58250;SDS011;51449;51.676;5.812;2023-11-21T00:43:33;13.33;;;6.33;;
58250;SDS011;51449;51.676;5.812;2023-11-21T00:45:55;12.60;;;6.83;;
58250;SDS011;51449;51.676;5.812;2023-11-21T00:48:17;14.00;;;7.23;;
58250;SDS011;51449;51.676;5.812;2023-11-21T00:50:42;13.73;;;7.33;;
58250;SDS011;51449;51.676;5.812;2023-11-21T00:53:03;13.53;;;7.10;;
58250;SDS011;51449;51.676;5.812;2023-11-21T00:55:25;12.17;;;6.53;;
58250;SDS011;51449;51.676;5.812;2023-11-21T00:57:48;14.90;;;6.77;;
58250;SDS011;51449;51.676;5.812;2023-11-21T01:00:10;10.10;;;6.23;;
58250;SDS011;51449;51.676;5.812;2023-11-21T01:02:37;13.87;;;6.30;;
58250;SDS011;51449;51.676;5.812;2023-11-21T01:04:59;12.90;;;6.37;;
58250;SDS011;51449;51.676;5.812;2023-11-21T01:07:21;11.80;;;6.67;;
58250;SDS011;51449;51.676;5.812;2023-11-21T01:09:44;11.33;;;6.87;;
58250;SDS011;51449;51.676;5.812;2023-11-21T01:12:07;15.57;;;7.43;;
58250;SDS011;51449;51.676;5.812;2023-11-21T01:14:29;11.87;;;6.10;;
58250;SDS011;51449;51.676;5.812;2023-11-21T01:16:51;15.63;;;6.97;;
58250;SDS011;51449;51.676;5.812;2023-11-21T01:19:13;13.50;;;6.60;;
58250;SDS011;51449;51.676;5.812;2023-11-21T01:21:35;17.37;;;7.20;;
58250;SDS011;51449;51.676;5.812;2023-11-21T01:23:58;14.47;;;6.43;;
58250;SDS011;51449;51.676;5.812;2023-11-21T01:26:20;14.30;;;6.67;;
58250;SDS011;51449;51.676;5.812;2023-11-21T01:28:42;17.30;;;6.93;;
58250;SDS011;51449;51.676;5.812;2023-11-21T01:31:04;15.13;;;7.30;;
58250;SDS011;51449;51.676;5.812;2023-11-21T01:33:28;18.30;;;8.50;;
58250;SDS011;51449;51.676;5.812;2023-11-21T01:35:51;18.40;;;7.67;;
58250;SDS011;51449;51.676;5.812;2023-11-21T01:38:16;15.00;;;8.60;;
58250;SDS011;51449;51.676;5.812;2023-11-21T01:40:38;17.33;;;7.57;;
58250;SDS011;51449;51.676;5.812;2023-11-21T01:43:01;17.67;;;8.33;;
58250;SDS011;51449;51.676;5.812;2023-11-21T01:45:26;18.90;;;7.90;;
58250;SDS011;51449;51.676;5.812;2023-11-21T01:47:48;14.00;;;7.67;;
58250;SDS011;51449;51.676;5.812;2023-11-21T01:50:12;13.83;;;7.53;;
58250;SDS011;51449;51.676;5.812;2023-11-21T01:52:38;16.33;;;8.13;;
58250;SDS011;51449;51.676;5.812;2023-11-21T01:55:02;25.98;;;7.38;;
58250;SDS011;51449;51.676;5.812;2023-11-21T01:57:27;15.03;;;7.30;;
58250;SDS011;51449;51.676;5.812;2023-11-21T01:59:49;18.53;;;8.03;;
58250;SDS011;51449;51.676;5.812;2023-11-21T02:02:15;19.60;;;7.50;;
58250;SDS011;51449;51.676;5.812;2023-11-21T02:04:39;14.53;;;7.83;;
58250;SDS011;51449;51.676;5.812;2023-11-21T02:07:01;15.53;;;7.27;;
58250;SDS011;51449;51.676;5.812;2023-11-21T02:09:29;18.37;;;8.80;;
58250;SDS011;51449;51.676;5.812;2023-11-21T02:11:53;21.17;;;8.07;;
58250;SDS011;51449;51.676;5.812;2023-11-21T02:14:19;24.30;;;8.50;;
58250;SDS011;51449;51.676;5.812;2023-11-21T02:16:43;22.95;;;9.98;;
58250;SDS011;51449;51.676;5.812;2023-11-21T02:19:09;20.23;;;8.37;;
58250;SDS011;51449;51.676;5.812;2023-11-21T02:21:40;19.73;;;9.33;;
58250;SDS011;51449;51.676;5.812;2023-11-21T02:24:02;26.17;;;9.53;;
58250;SDS011;51449;51.676;5.812;2023-11-21T02:26:24;15.80;;;8.63;;
58250;SDS011;51449;51.676;5.812;2023-11-21T02:28:47;54.80;;;9.27;;
58250;SDS011;51449;51.676;5.812;2023-11-21T02:31:09;29.60;;;9.40;;
58250;SDS011;51449;51.676;5.812;2023-11-21T02:33:31;28.80;;;8.57;;
58250;SDS011;51449;51.676;5.812;2023-11-21T02:35:55;44.67;;;8.68;;
58250;SDS011;51449;51.676;5.812;2023-11-21T02:38:17;24.97;;;8.80;;
58250;SDS011;51449;51.676;5.812;2023-11-21T02:40:40;48.23;;;8.57;;
58250;SDS011;51449;51.676;5.812;2023-11-21T02:43:02;31.17;;;8.67;;
58250;SDS011;51449;51.676;5.812;2023-11-21T02:45:24;37.47;;;9.13;;
58250;SDS011;51449;51.676;5.812;2023-11-21T02:47:46;28.67;;;9.47;;
58250;SDS011;51449;51.676;5.812;2023-11-21T02:50:09;41.27;;;8.23;;
58250;SDS011;51449;51.676;5.812;2023-11-21T02:52:31;24.50;;;9.20;;
58250;SDS011;51449;51.676;5.812;2023-11-21T02:54:54;31.23;;;7.50;;
58250;SDS011;51449;51.676;5.812;2023-11-21T02:57:16;17.93;;;7.63;;
58250;SDS011;51449;51.676;5.812;2023-11-21T02:59:38;38.80;;;8.30;;
58250;SDS011;51449;51.676;5.812;2023-11-21T03:02:00;24.27;;;7.60;;
58250;SDS011;51449;51.676;5.812;2023-11-21T03:04:22;36.30;;;8.50;;
58250;SDS011;51449;51.676;5.812;2023-11-21T03:06:44;19.67;;;8.07;;
58250;SDS011;51449;51.676;5.812;2023-11-21T03:09:07;18.27;;;7.63;;
58250;SDS011;51449;51.676;5.812;2023-11-21T03:11:29;37.90;;;8.63;;
58250;SDS011;51449;51.676;5.812;2023-11-21T03:13:51;25.63;;;7.70;;
58250;SDS011;51449;51.676;5.812;2023-11-21T03:16:13;29.53;;;8.50;;
58250;SDS011;51449;51.676;5.812;2023-11-21T03:18:39;31.20;;;8.63;;
58250;SDS011;51449;51.676;5.812;2023-11-21T03:21:01;30.33;;;8.27;;
58250;SDS011;51449;51.676;5.812;2023-11-21T03:23:24;23.23;;;7.50;;
58250;SDS011;51449;51.676;5.812;2023-11-21T03:25:46;27.00;;;7.30;;
58250;SDS011;51449;51.676;5.812;2023-11-21T03:28:09;33.07;;;8.40;;
58250;SDS011;51449;51.676;5.812;2023-11-21T03:30:30;18.67;;;8.60;;
58250;SDS011;51449;51.676;5.812;2023-11-21T03:32:52;21.20;;;7.33;;
58250;SDS011;51449;51.676;5.812;2023-11-21T03:35:15;38.37;;;8.83;;
58250;SDS011;51449;51.676;5.812;2023-11-21T03:37:37;38.30;;;9.20;;
58250;SDS011;51449;51.676;5.812;2023-11-21T03:40:04;30.77;;;8.70;;
58250;SDS011;51449;51.676;5.812;2023-11-21T03:42:27;28.67;;;7.87;;
58250;SDS011;51449;51.676;5.812;2023-11-21T03:44:49;17.97;;;7.40;;
58250;SDS011;51449;51.676;5.812;2023-11-21T03:47:10;20.53;;;7.77;;
58250;SDS011;51449;51.676;5.812;2023-11-21T03:49:33;27.63;;;9.03;;
58250;SDS011;51449;51.676;5.812;2023-11-21T03:51:55;27.00;;;7.87;;
58250;SDS011;51449;51.676;5.812;2023-11-21T03:54:18;30.47;;;8.63;;
58250;SDS011;51449;51.676;5.812;2023-11-21T03:56:40;24.97;;;8.07;;
58250;SDS011;51449;51.676;5.812;2023-11-21T03:59:02;19.77;;;7.73;;
58250;SDS011;51449;51.676;5.812;2023-11-21T04:01:25;28.90;;;7.90;;
58250;SDS011;51449;51.676;5.812;2023-11-21T04:03:49;33.33;;;8.27;;
58250;SDS011;51449;51.676;5.812;2023-11-21T04:06:12;36.47;;;8.43;;
58250;SDS011;51449;51.676;5.812;2023-11-21T04:08:34;33.20;;;8.87;;
58250;SDS011;51449;51.676;5.812;2023-11-21T04:10:58;33.83;;;8.00;;
58250;SDS011;51449;51.676;5.812;2023-11-21T04:13:20;21.57;;;7.70;;
58250;SDS011;51449;51.676;5.812;2023-11-21T04:15:42;17.70;;;7.90;;
58250;SDS011;51449;51.676;5.812;2023-11-21T04:18:04;32.70;;;7.10;;
58250;SDS011;51449;51.676;5.812;2023-11-21T04:20:26;25.37;;;8.47;;
58250;SDS011;51449;51.676;5.812;2023-11-21T04:22:48;17.80;;;8.17;;
58250;SDS011;51449;51.676;5.812;2023-11-21T04:25:11;26.43;;;7.67;;
58250;SDS011;51449;51.676;5.812;2023-11-21T04:27:36;18.63;;;7.57;;
58250;SDS011;51449;51.676;5.812;2023-11-21T04:30:01;12.70;;;7.00;;
58250;SDS011;51449;51.676;5.812;2023-11-21T04:32:22;37.67;;;7.83;;
58250;SDS011;51449;51.676;5.812;2023-11-21T04:34:45;20.30;;;7.13;;
58250;SDS011;51449;51.676;5.812;2023-11-21T04:37:07;20.47;;;8.03;;
58250;SDS011;51449;51.676;5.812;2023-11-21T04:39:29;20.60;;;8.00;;
58250;SDS011;51449;51.676;5.812;2023-11-21T04:41:52;16.57;;;7.93;;
58250;SDS011;51449;51.676;5.812;2023-11-21T04:44:14;21.90;;;8.30;;
58250;SDS011;51449;51.676;5.812;2023-11-21T04:46:37;31.27;;;7.97;;
58250;SDS011;51449;51.676;5.812;2023-11-21T04:49:00;19.17;;;9.00;;
58250;SDS011;51449;51.676;5.812;2023-11-21T04:51:22;18.83;;;7.63;;
58250;SDS011;51449;51.676;5.812;2023-11-21T04:53:44;34.67;;;9.13;;
58250;SDS011;51449;51.676;5.812;2023-11-21T04:56:05;34.03;;;8.17;;
58250;SDS011;51449;51.676;5.812;2023-11-21T04:58:28;24.13;;;8.37;;
58250;SDS011;51449;51.676;5.812;2023-11-21T05:00:50;23.23;;;8.13;;
58250;SDS011;51449;51.676;5.812;2023-11-21T05:03:12;24.70;;;7.30;;
58250;SDS011;51449;51.676;5.812;2023-11-21T05:05:34;22.70;;;8.13;;
58250;SDS011;51449;51.676;5.812;2023-11-21T05:07:57;32.63;;;9.30;;
58250;SDS011;51449;51.676;5.812;2023-11-21T05:10:19;22.03;;;7.77;;
58250;SDS011;51449;51.676;5.812;2023-11-21T05:12:41;17.43;;;7.50;;
58250;SDS011;51449;51.676;5.812;2023-11-21T05:15:04;24.07;;;9.50;;
58250;SDS011;51449;51.676;5.812;2023-11-21T05:17:35;20.13;;;8.10;;
58250;SDS011;51449;51.676;5.812;2023-11-21T05:20:01;18.57;;;8.43;;
58250;SDS011;51449;51.676;5.812;2023-11-21T05:24:47;16.97;;;7.30;;
58250;SDS011;51449;51.676;5.812;2023-11-21T05:27:09;15.67;;;7.33;;
58250;SDS011;51449;51.676;5.812;2023-11-21T05:29:31;18.13;;;7.13;;
58250;SDS011;51449;51.676;5.812;2023-11-21T05:31:52;19.67;;;7.70;;
58250;SDS011;51449;51.676;5.812;2023-11-21T05:34:15;17.63;;;8.10;;
58250;SDS011;51449;51.676;5.812;2023-11-21T05:36:39;20.70;;;8.93;;
58250;SDS011;51449;51.676;5.812;2023-11-21T05:39:00;17.20;;;8.43;;
58250;SDS011;51449;51.676;5.812;2023-11-21T05:41:22;23.63;;;8.37;;
58250;SDS011;51449;51.676;5.812;2023-11-21T05:43:44;13.97;;;6.90;;
58250;SDS011;51449;51.676;5.812;2023-11-21T05:46:06;17.73;;;8.20;;
58250;SDS011;51449;51.676;5.812;2023-11-21T05:48:29;19.57;;;8.60;;
58250;SDS011;51449;51.676;5.812;2023-11-21T05:50:51;20.17;;;8.10;;
58250;SDS011;51449;51.676;5.812;2023-11-21T05:53:13;18.00;;;8.57;;
58250;SDS011;51449;51.676;5.812;2023-11-21T05:55:37;16.03;;;7.53;;
58250;SDS011;51449;51.676;5.812;2023-11-21T05:58:01;20.20;;;8.98;;
58250;SDS011;51449;51.676;5.812;2023-11-21T06:00:23;17.97;;;8.30;;
58250;SDS011;51449;51.676;5.812;2023-11-21T06:05:17;17.80;;;8.00;;
58250;SDS011;51449;51.676;5.812;2023-11-21T06:07:41;16.55;;;8.88;;
58250;SDS011;51449;51.676;5.812;2023-11-21T06:10:03;14.63;;;8.27;;
58250;SDS011;51449;51.676;5.812;2023-11-21T06:12:34;18.07;;;8.23;;
58250;SDS011;51449;51.676;5.812;2023-11-21T06:14:57;17.17;;;7.77;;
58250;SDS011;51449;51.676;5.812;2023-11-21T06:17:19;16.67;;;8.90;;
58250;SDS011;51449;51.676;5.812;2023-11-21T06:19:41;18.63;;;8.60;;
58250;SDS011;51449;51.676;5.812;2023-11-21T06:22:03;19.93;;;9.47;;
58250;SDS011;51449;51.676;5.812;2023-11-21T06:24:25;16.10;;;7.97;;
58250;SDS011;51449;51.676;5.812;2023-11-21T06:26:47;14.83;;;7.90;;
58250;SDS011;51449;51.676;5.812;2023-11-21T06:29:09;16.83;;;8.33;;
58250;SDS011;51449;51.676;5.812;2023-11-21T06:31:32;16.37;;;7.90;;
58250;SDS011;51449;51.676;5.812;2023-11-21T06:33:54;15.07;;;8.10;;
58250;SDS011;51449;51.676;5.812;2023-11-21T06:36:16;15.63;;;7.70;;
58250;SDS011;51449;51.676;5.812;2023-11-21T06:38:38;14.63;;;7.30;;
58250;SDS011;51449;51.676;5.812;2023-11-21T06:40:59;14.00;;;7.37;;
58250;SDS011;51449;51.676;5.812;2023-11-21T06:43:25;15.47;;;7.77;;
58250;SDS011;51449;51.676;5.812;2023-11-21T06:45:48;15.53;;;7.73;;
58250;SDS011;51449;51.676;5.812;2023-11-21T06:48:10;14.73;;;7.57;;
58250;SDS011;51449;51.676;5.812;2023-11-21T06:50:32;14.13;;;7.83;;
58250;SDS011;51449;51.676;5.812;2023-11-21T06:52:54;13.37;;;6.97;;
58250;SDS011;51449;51.676;5.812;2023-11-21T06:55:15;17.37;;;8.33;;
58250;SDS011;51449;51.676;5.812;2023-11-21T06:57:38;13.67;;;7.67;;
58250;SDS011;51449;51.676;5.812;2023-11-21T07:00:00;16.10;;;7.90;;
58250;SDS011;51449;51.676;5.812;2023-11-21T07:02:21;14.87;;;8.63;;
58250;SDS011;51449;51.676;5.812;2023-11-21T07:04:44;15.60;;;8.33;;
58250;SDS011;51449;51.676;5.812;2023-11-21T07:07:09;14.77;;;8.00;;
58250;SDS011;51449;51.676;5.812;2023-11-21T07:09:30;13.63;;;8.53;;
58250;SDS011;51449;51.676;5.812;2023-11-21T07:11:52;14.83;;;7.40;;
58250;SDS011;51449;51.676;5.812;2023-11-21T07:14:17;16.07;;;8.13;;
58250;SDS011;51449;51.676;5.812;2023-11-21T07:16:40;15.37;;;8.93;;
58250;SDS011;51449;51.676;5.812;2023-11-21T07:19:06;15.30;;;8.53;;
58250;SDS011;51449;51.676;5.812;2023-11-21T07:21:28;21.07;;;9.10;;
58250;SDS011;51449;51.676;5.812;2023-11-21T07:23:50;15.23;;;9.10;;
58250;SDS011;51449;51.676;5.812;2023-11-21T07:26:12;15.30;;;7.97;;
58250;SDS011;51449;51.676;5.812;2023-11-21T07:28:33;16.10;;;8.33;;
58250;SDS011;51449;51.676;5.812;2023-11-21T07:30:56;16.03;;;8.47;;
58250;SDS011;51449;51.676;5.812;2023-11-21T07:33:17;19.80;;;8.77;;
58250;SDS011;51449;51.676;5.812;2023-11-21T07:35:39;18.53;;;9.53;;
58250;SDS011;51449;51.676;5.812;2023-11-21T07:38:01;18.90;;;9.53;;
58250;SDS011;51449;51.676;5.812;2023-11-21T07:40:23;18.57;;;8.80;;
58250;SDS011;51449;51.676;5.812;2023-11-21T07:42:45;16.57;;;8.30;;
58250;SDS011;51449;51.676;5.812;2023-11-21T07:45:07;17.87;;;9.03;;
58250;SDS011;51449;51.676;5.812;2023-11-21T07:47:30;18.87;;;9.20;;
58250;SDS011;51449;51.676;5.812;2023-11-21T07:49:56;15.73;;;8.77;;
58250;SDS011;51449;51.676;5.812;2023-11-21T07:52:18;14.40;;;7.83;;
58250;SDS011;51449;51.676;5.812;2023-11-21T07:54:40;18.43;;;8.60;;
58250;SDS011;51449;51.676;5.812;2023-11-21T07:57:02;15.57;;;8.63;;
58250;SDS011;51449;51.676;5.812;2023-11-21T07:59:25;17.90;;;9.50;;
58250;SDS011;51449;51.676;5.812;2023-11-21T08:01:47;17.07;;;8.73;;
58250;SDS011;51449;51.676;5.812;2023-11-21T08:04:09;15.10;;;8.60;;
58250;SDS011;51449;51.676;5.812;2023-11-21T08:06:31;16.20;;;9.13;;
58250;SDS011;51449;51.676;5.812;2023-11-21T08:08:52;21.13;;;9.43;;
58250;SDS011;51449;51.676;5.812;2023-11-21T08:11:14;25.77;;;12.00;;
58250;SDS011;51449;51.676;5.812;2023-11-21T08:13:36;26.20;;;12.00;;
58250;SDS011;51449;51.676;5.812;2023-11-21T08:15:58;23.30;;;12.17;;
58250;SDS011;51449;51.676;5.812;2023-11-21T08:18:24;18.93;;;9.70;;
58250;SDS011;51449;51.676;5.812;2023-11-21T08:20:46;20.50;;;9.93;;
58250;SDS011;51449;51.676;5.812;2023-11-21T08:23:11;21.70;;;10.23;;
58250;SDS011;51449;51.676;5.812;2023-11-21T08:25:33;19.53;;;9.70;;
58250;SDS011;51449;51.676;5.812;2023-11-21T08:27:56;18.73;;;8.63;;
58250;SDS011;51449;51.676;5.812;2023-11-21T08:30:18;18.17;;;10.00;;
58250;SDS011;51449;51.676;5.812;2023-11-21T08:32:41;19.87;;;9.43;;
58250;SDS011;51449;51.676;5.812;2023-11-21T08:35:02;19.63;;;9.47;;
58250;SDS011;51449;51.676;5.812;2023-11-21T08:37:27;16.87;;;9.57;;
58250;SDS011;51449;51.676;5.812;2023-11-21T08:39:51;17.58;;;9.02;;
58250;SDS011;51449;51.676;5.812;2023-11-21T08:42:14;20.03;;;10.83;;
58250;SDS011;51449;51.676;5.812;2023-11-21T08:44:36;19.53;;;9.70;;
58250;SDS011;51449;51.676;5.812;2023-11-21T08:46:58;18.60;;;10.23;;
58250;SDS011;51449;51.676;5.812;2023-11-21T08:49:20;18.63;;;9.67;;
58250;SDS011;51449;51.676;5.812;2023-11-21T08:51:42;18.73;;;9.97;;
58250;SDS011;51449;51.676;5.812;2023-11-21T08:54:06;18.15;;;10.02;;
58250;SDS011;51449;51.676;5.812;2023-11-21T08:56:29;16.90;;;9.13;;
58250;SDS011;51449;51.676;5.812;2023-11-21T08:58:51;15.83;;;8.70;;
58250;SDS011;51449;51.676;5.812;2023-11-21T09:01:14;17.13;;;8.50;;
58250;SDS011;51449;51.676;5.812;2023-11-21T09:03:36;19.43;;;9.10;;
58250;SDS011;51449;51.676;5.812;2023-11-21T09:05:58;23.33;;;9.70;;
58250;SDS011;51449;51.676;5.812;2023-11-21T09:08:20;20.80;;;9.73;;
58250;SDS011;51449;51.676;5.812;2023-11-21T09:10:43;21.90;;;10.07;;
58250;SDS011;51449;51.676;5.812;2023-11-21T09:13:08;18.97;;;10.17;;
58250;SDS011;51449;51.676;5.812;2023-11-21T09:15:31;20.00;;;10.13;;
58250;SDS011;51449;51.676;5.812;2023-11-21T09:17:53;20.90;;;10.60;;
58250;SDS011;51449;51.676;5.812;2023-11-21T09:20:15;21.20;;;9.90;;
58250;SDS011;51449;51.676;5.812;2023-11-21T09:22:37;21.33;;;10.33;;
58250;SDS011;51449;51.676;5.812;2023-11-21T09:24:59;24.13;;;11.83;;
58250;SDS011;51449;51.676;5.812;2023-11-21T09:27:21;20.00;;;9.57;;
58250;SDS011;51449;51.676;5.812;2023-11-21T09:29:43;23.23;;;11.83;;
58250;SDS011;51449;51.676;5.812;2023-11-21T09:32:05;22.40;;;10.93;;
58250;SDS011;51449;51.676;5.812;2023-11-21T09:34:29;20.90;;;9.90;;
58250;SDS011;51449;51.676;5.812;2023-11-21T09:36:51;20.87;;;10.60;;
58250;SDS011;51449;51.676;5.812;2023-11-21T09:39:14;22.57;;;11.17;;
58250;SDS011;51449;51.676;5.812;2023-11-21T09:41:39;25.67;;;11.90;;
58250;SDS011;51449;51.676;5.812;2023-11-21T09:44:08;19.77;;;10.17;;
58250;SDS011;51449;51.676;5.812;2023-11-21T09:46:34;24.63;;;10.33;;
58250;SDS011;51449;51.676;5.812;2023-11-21T09:49:00;25.50;;;10.77;;
58250;SDS011;51449;51.676;5.812;2023-11-21T09:51:27;25.10;;;11.03;;
58250;SDS011;51449;51.676;5.812;2023-11-21T09:53:54;23.87;;;10.80;;
58250;SDS011;51449;51.676;5.812;2023-11-21T09:56:20;27.20;;;12.73;;
58250;SDS011;51449;51.676;5.812;2023-11-21T09:58:45;22.23;;;12.07;;
58250;SDS011;51449;51.676;5.812;2023-11-21T10:01:08;22.83;;;10.90;;
58250;SDS011;51449;51.676;5.812;2023-11-21T10:03:31;18.77;;;10.13;;
58250;SDS011;51449;51.676;5.812;2023-11-21T10:05:53;20.47;;;11.27;;
58250;SDS011;51449;51.676;5.812;2023-11-21T10:08:15;25.27;;;12.37;;
58250;SDS011;51449;51.676;5.812;2023-11-21T10:10:37;24.73;;;10.30;;
58250;SDS011;51449;51.676;5.812;2023-11-21T10:13:11;23.20;;;11.73;;
58250;SDS011;51449;51.676;5.812;2023-11-21T10:15:39;26.10;;;11.47;;
58250;SDS011;51449;51.676;5.812;2023-11-21T10:18:06;20.17;;;10.50;;
58250;SDS011;51449;51.676;5.812;2023-11-21T10:20:31;21.47;;;11.17;;
58250;SDS011;51449;51.676;5.812;2023-11-21T10:22:55;23.23;;;11.98;;
58250;SDS011;51449;51.676;5.812;2023-11-21T10:25:18;23.80;;;11.60;;
58250;SDS011;51449;51.676;5.812;2023-11-21T10:27:42;20.73;;;10.40;;
58250;SDS011;51449;51.676;5.812;2023-11-21T10:30:07;22.07;;;10.67;;
58250;SDS011;51449;51.676;5.812;2023-11-21T10:32:35;23.73;;;11.20;;
58250;SDS011;51449;51.676;5.812;2023-11-21T10:35:01;25.33;;;11.10;;
58250;SDS011;51449;51.676;5.812;2023-11-21T10:37:28;22.80;;;11.83;;
58250;SDS011;51449;51.676;5.812;2023-11-21T10:39:50;26.30;;;12.90;;
58250;SDS011;51449;51.676;5.812;2023-11-21T10:42:12;29.67;;;13.00;;
58250;SDS011;51449;51.676;5.812;2023-11-21T10:44:34;23.07;;;11.60;;
58250;SDS011;51449;51.676;5.812;2023-11-21T10:46:56;27.53;;;11.67;;
58250;SDS011;51449;51.676;5.812;2023-11-21T10:49:22;28.67;;;13.50;;
58250;SDS011;51449;51.676;5.812;2023-11-21T10:51:46;20.23;;;11.67;;
58250;SDS011;51449;51.676;5.812;2023-11-21T10:54:10;26.10;;;11.82;;
58250;SDS011;51449;51.676;5.812;2023-11-21T10:56:34;31.20;;;13.10;;
58250;SDS011;51449;51.676;5.812;2023-11-21T10:59:02;32.17;;;13.30;;
58250;SDS011;51449;51.676;5.812;2023-11-21T11:01:25;30.50;;;14.03;;
58250;SDS011;51449;51.676;5.812;2023-11-21T11:03:52;27.60;;;13.20;;
58250;SDS011;51449;51.676;5.812;2023-11-21T11:06:16;30.33;;;13.73;;
58250;SDS011;51449;51.676;5.812;2023-11-21T11:08:39;33.20;;;15.67;;
58250;SDS011;51449;51.676;5.812;2023-11-21T11:11:02;29.47;;;11.93;;
58250;SDS011;51449;51.676;5.812;2023-11-21T11:13:24;27.97;;;11.93;;
58250;SDS011;51449;51.676;5.812;2023-11-21T11:15:47;24.63;;;11.80;;
58250;SDS011;51449;51.676;5.812;2023-11-21T11:18:10;27.23;;;11.93;;
58250;SDS011;51449;51.676;5.812;2023-11-21T11:20:34;27.83;;;11.67;;
58250;SDS011;51449;51.676;5.812;2023-11-21T11:23:07;25.53;;;12.07;;
58250;SDS011;51449;51.676;5.812;2023-11-21T11:29:23;27.67;;;10.83;;
58250;SDS011;51449;51.676;5.812;2023-11-21T11:32:16;20.73;;;10.43;;
58250;SDS011;51449;51.676;5.812;2023-11-21T11:37:32;22.30;;;10.80;;
58250;SDS011;51449;51.676;5.812;2023-11-21T11:39:55;22.13;;;10.83;;
58250;SDS011;51449;51.676;5.812;2023-11-21T11:42:17;25.70;;;11.50;;
58250;SDS011;51449;51.676;5.812;2023-11-21T11:47:13;21.70;;;10.50;;
58250;SDS011;51449;51.676;5.812;2023-11-21T11:50:12;21.73;;;11.53;;
58250;SDS011;51449;51.676;5.812;2023-11-21T11:55:14;18.83;;;10.27;;
58250;SDS011;51449;51.676;5.812;2023-11-21T11:57:41;20.87;;;9.20;;
58250;SDS011;51449;51.676;5.812;2023-11-21T12:00:15;22.50;;;10.52;;
58250;SDS011;51449;51.676;5.812;2023-11-21T12:02:50;21.00;;;9.57;;
58250;SDS011;51449;51.676;5.812;2023-11-21T12:05:15;27.67;;;10.90;;
58250;SDS011;51449;51.676;5.812;2023-11-21T12:07:51;21.00;;;11.13;;
58250;SDS011;51449;51.676;5.812;2023-11-21T12:10:16;26.20;;;12.10;;
58250;SDS011;51449;51.676;5.812;2023-11-21T12:12:44;27.07;;;12.00;;
58250;SDS011;51449;51.676;5.812;2023-11-21T12:15:11;49.50;;;12.50;;
58250;SDS011;51449;51.676;5.812;2023-11-21T12:17:35;28.17;;;11.52;;
58250;SDS011;51449;51.676;5.812;2023-11-21T12:20:02;26.85;;;12.10;;
58250;SDS011;51449;51.676;5.812;2023-11-21T12:22:27;19.50;;;9.47;;
58250;SDS011;51449;51.676;5.812;2023-11-21T12:24:50;27.33;;;12.23;;
58250;SDS011;51449;51.676;5.812;2023-11-21T12:27:12;29.00;;;10.97;;
58250;SDS011;51449;51.676;5.812;2023-11-21T12:29:35;17.77;;;9.27;;
58250;SDS011;51449;51.676;5.812;2023-11-21T12:32:03;23.17;;;11.10;;
58250;SDS011;51449;51.676;5.812;2023-11-21T12:34:25;29.43;;;10.97;;
58250;SDS011;51449;51.676;5.812;2023-11-21T12:36:49;24.20;;;10.23;;
58250;SDS011;51449;51.676;5.812;2023-11-21T12:39:16;29.67;;;12.60;;
58250;SDS011;51449;51.676;5.812;2023-11-21T12:41:39;25.77;;;10.80;;
58250;SDS011;51449;51.676;5.812;2023-11-21T12:44:04;23.17;;;9.87;;
58250;SDS011;51449;51.676;5.812;2023-11-21T12:46:34;20.70;;;9.70;;
58250;SDS011;51449;51.676;5.812;2023-11-21T12:48:58;23.73;;;10.95;;
58250;SDS011;51449;51.676;5.812;2023-11-21T12:51:22;26.65;;;11.45;;
58250;SDS011;51449;51.676;5.812;2023-11-21T12:53:46;20.63;;;9.83;;
58250;SDS011;51449;51.676;5.812;2023-11-21T12:56:10;25.73;;;10.05;;
58250;SDS011;51449;51.676;5.812;2023-11-21T13:01:02;25.40;;;9.50;;
58250;SDS011;51449;51.676;5.812;2023-11-21T13:03:28;21.23;;;9.63;;
58250;SDS011;51449;51.676;5.812;2023-11-21T13:05:56;23.57;;;10.07;;
58250;SDS011;51449;51.676;5.812;2023-11-21T13:08:21;22.47;;;9.93;;
58250;SDS011;51449;51.676;5.812;2023-11-21T13:10:51;21.93;;;9.63;;
58250;SDS011;51449;51.676;5.812;2023-11-21T13:13:20;23.23;;;10.67;;
58250;SDS011;51449;51.676;5.812;2023-11-21T13:15:49;19.20;;;9.80;;
58250;SDS011;51449;51.676;5.812;2023-11-21T13:18:16;21.93;;;10.67;;
58250;SDS011;51449;51.676;5.812;2023-11-21T13:20:41;21.70;;;10.30;;
58250;SDS011;51449;51.676;5.812;2023-11-21T13:23:08;23.48;;;10.68;;
58250;SDS011;51449;51.676;5.812;2023-11-21T13:25:38;19.77;;;9.13;;
58250;SDS011;51449;51.676;5.812;2023-11-21T13:28:13;21.40;;;9.32;;
58250;SDS011;51449;51.676;5.812;2023-11-21T13:30:44;19.63;;;8.63;;
58250;SDS011;51449;51.676;5.812;2023-11-21T13:33:08;18.98;;;10.23;;
58250;SDS011;51449;51.676;5.812;2023-11-21T13:35:34;16.93;;;9.57;;
58250;SDS011;51449;51.676;5.812;2023-11-21T13:38:04;17.30;;;8.77;;
58250;SDS011;51449;51.676;5.812;2023-11-21T13:43:09;13.67;;;7.60;;
58250;SDS011;51449;51.676;5.812;2023-11-21T13:45:32;16.48;;;7.38;;
58250;SDS011;51449;51.676;5.812;2023-11-21T13:47:55;12.60;;;6.93;;
58250;SDS011;51449;51.676;5.812;2023-11-21T13:50:21;13.77;;;7.50;;
58250;SDS011;51449;51.676;5.812;2023-11-21T13:52:51;16.97;;;8.43;;
58250;SDS011;51449;51.676;5.812;2023-11-21T13:55:17;13.23;;;6.33;;
58250;SDS011;51449;51.676;5.812;2023-11-21T13:57:42;21.27;;;9.90;;
58250;SDS011;51449;51.676;5.812;2023-11-21T14:00:07;9.10;;;5.70;;
58250;SDS011;51449;51.676;5.812;2023-11-21T14:02:51;9.93;;;6.00;;
58250;SDS011;51449;51.676;5.812;2023-11-21T14:05:17;10.83;;;5.70;;
58250;SDS011;51449;51.676;5.812;2023-11-21T14:07:51;7.07;;;4.72;;
58250;SDS011;51449;51.676;5.812;2023-11-21T14:10:14;8.73;;;5.33;;
58250;SDS011;51449;51.676;5.812;2023-11-21T14:12:38;10.73;;;6.15;;
58250;SDS011;51449;51.676;5.812;2023-11-21T14:15:04;11.37;;;6.10;;
58250;SDS011;51449;51.676;5.812;2023-11-21T14:17:32;15.53;;;7.40;;
58250;SDS011;51449;51.676;5.812;2023-11-21T14:22:19;17.97;;;8.43;;
58250;SDS011;51449;51.676;5.812;2023-11-21T14:24:43;15.80;;;7.57;;
58250;SDS011;51449;51.676;5.812;2023-11-21T14:27:10;12.40;;;6.73;;
58250;SDS011;51449;51.676;5.812;2023-11-21T14:29:33;15.23;;;8.13;;
58250;SDS011;51449;51.676;5.812;2023-11-21T14:32:01;17.20;;;8.37;;
58250;SDS011;51449;51.676;5.812;2023-11-21T14:34:26;18.77;;;8.73;;